KUGR12 CYOD-CYOD
Flight info
| Callsign | KUGR12 |
|---|---|
| Flight time | 0h 33m |
| Altitude | 12000 |
| Route | VFR WITHIN COLD LAKE WEAPONS RANGE |
| Aircraft | F18H/M-SGV/C |
Departure
| Time | 2026-04-19 01:22 |
|---|---|
| Airport | CFB Cold Lake (CYOD) |
Arrival
| Time | 2026-04-19 01:55 |
|---|---|
| Airport | CFB Cold Lake (CYOD) |
| Time | Latitude | Longitude | Altitude | Speed | Heading |
|---|---|---|---|---|---|
| 2026-04-19 00:16 | 54.40582 | -110.27371 | 1777 ft | 0 kts | 143° |
| 2026-04-19 01:18 | 54.40578 | -110.27372 | 1778 ft | 2 kts | 212° |
| 2026-04-19 01:18 | 54.40577 | -110.27374 | 1778 ft | 0 kts | 214° |
| 2026-04-19 01:18 | 54.40552 | -110.27390 | 1777 ft | 11 kts | 190° |
| 2026-04-19 01:18 | 54.40489 | -110.27340 | 1777 ft | 10 kts | 157° |
| 2026-04-19 01:19 | 54.40430 | -110.27400 | 1777 ft | 12 kts | 233° |
| 2026-04-19 01:19 | 54.40372 | -110.27535 | 1777 ft | 16 kts | 233° |
| 2026-04-19 01:19 | 54.40305 | -110.27690 | 1778 ft | 15 kts | 233° |
| 2026-04-19 01:19 | 54.40250 | -110.27819 | 1778 ft | 14 kts | 233° |
| 2026-04-19 01:20 | 54.40192 | -110.27959 | 1778 ft | 15 kts | 234° |
| 2026-04-19 01:20 | 54.40118 | -110.27960 | 1778 ft | 15 kts | 102° |
| 2026-04-19 01:20 | 54.40094 | -110.27777 | 1778 ft | 16 kts | 135° |
| 2026-04-19 01:20 | 54.39996 | -110.27857 | 1776 ft | 19 kts | 234° |
| 2026-04-19 01:21 | 54.39988 | -110.28053 | 1780 ft | 15 kts | 308° |
| 2026-04-19 01:21 | 54.40019 | -110.28106 | 1779 ft | 0 kts | 326° |
| 2026-04-19 01:21 | 54.40021 | -110.28115 | 1779 ft | 3 kts | 290° |
| 2026-04-19 01:21 | 54.40092 | -110.28204 | 1779 ft | 61 kts | 324° |
| 2026-04-19 01:22 | 54.40907 | -110.29225 | 1861 ft | 214 kts | 324° |
| 2026-04-19 01:22 | 54.42361 | -110.30931 | 2909 ft | 248 kts | 332° |
| 2026-04-19 01:22 | 54.43780 | -110.31916 | 4653 ft | 204 kts | 344° |
| 2026-04-19 01:22 | 54.45281 | -110.31892 | 6403 ft | 216 kts | 22° |
| 2026-04-19 01:23 | 54.46200 | -110.30263 | 7593 ft | 186 kts | 74° |
| 2026-04-19 01:23 | 54.46368 | -110.27824 | 8623 ft | 247 kts | 82° |
| 2026-04-19 01:23 | 54.46531 | -110.24240 | 9309 ft | 351 kts | 82° |
| 2026-04-19 01:23 | 54.46896 | -110.19466 | 10048 ft | 444 kts | 76° |
| 2026-04-19 01:24 | 54.47649 | -110.14408 | 12035 ft | 432 kts | 68° |
| 2026-04-19 01:24 | 54.48623 | -110.09542 | 13753 ft | 425 kts | 66° |
| 2026-04-19 01:24 | 54.49638 | -110.04948 | 15461 ft | 403 kts | 64° |
| 2026-04-19 01:24 | 54.50716 | -110.00318 | 16339 ft | 445 kts | 63° |
| 2026-04-19 01:25 | 54.52098 | -109.95305 | 15397 ft | 490 kts | 57° |
| 2026-04-19 01:25 | 54.54024 | -109.90384 | 15204 ft | 509 kts | 49° |
| 2026-04-19 01:25 | 54.56192 | -109.85812 | 15111 ft | 469 kts | 44° |
| 2026-04-19 01:25 | 54.58345 | -109.81743 | 15067 ft | 462 kts | 43° |
| 2026-04-19 01:26 | 54.60543 | -109.77696 | 15096 ft | 460 kts | 41° |
| 2026-04-19 01:26 | 54.62894 | -109.74279 | 15068 ft | 433 kts | 32° |
| 2026-04-19 01:26 | 54.65240 | -109.71128 | 15090 ft | 421 kts | 33° |
| 2026-04-19 01:26 | 54.67523 | -109.67959 | 15101 ft | 422 kts | 35° |
| 2026-04-19 01:27 | 54.69745 | -109.64622 | 15123 ft | 423 kts | 37° |
| 2026-04-19 01:27 | 54.71936 | -109.61352 | 15143 ft | 422 kts | 36° |
| 2026-04-19 01:27 | 54.74172 | -109.58056 | 15176 ft | 421 kts | 36° |
| 2026-04-19 01:27 | 54.76409 | -109.54779 | 15099 ft | 421 kts | 36° |
| 2026-04-19 01:28 | 54.78644 | -109.51490 | 15115 ft | 421 kts | 35° |
| 2026-04-19 01:28 | 54.81079 | -109.48848 | 15154 ft | 408 kts | 20° |
| 2026-04-19 01:28 | 54.83770 | -109.47347 | 15122 ft | 405 kts | 4° |
| 2026-04-19 01:28 | 54.86562 | -109.47294 | 15121 ft | 401 kts | 353° |
| 2026-04-19 01:29 | 54.89187 | -109.48295 | 15046 ft | 384 kts | 335° |
| 2026-04-19 01:29 | 54.91513 | -109.50434 | 15098 ft | 384 kts | 323° |
| 2026-04-19 01:29 | 54.93484 | -109.53765 | 15055 ft | 400 kts | 311° |
| 2026-04-19 01:29 | 54.94930 | -109.57911 | 14977 ft | 403 kts | 297° |
| 2026-04-19 01:30 | 54.95722 | -109.62575 | 15076 ft | 407 kts | 282° |
| 2026-04-19 01:30 | 54.96161 | -109.67468 | 15136 ft | 408 kts | 285° |
| 2026-04-19 01:30 | 54.96670 | -109.72336 | 15099 ft | 410 kts | 282° |
| 2026-04-19 01:30 | 54.97181 | -109.77211 | 15071 ft | 406 kts | 291° |
| 2026-04-19 01:31 | 54.98478 | -109.81457 | 15139 ft | 414 kts | 309° |
| 2026-04-19 01:31 | 55.00447 | -109.85157 | 15159 ft | 413 kts | 321° |
| 2026-04-19 01:31 | 55.02773 | -109.87870 | 15119 ft | 393 kts | 328° |
| 2026-04-19 01:31 | 55.05007 | -109.90416 | 15010 ft | 391 kts | 327° |
| 2026-04-19 01:32 | 55.07347 | -109.92936 | 15068 ft | 400 kts | 331° |
| 2026-04-19 01:32 | 55.09617 | -109.95544 | 15075 ft | 399 kts | 318° |
| 2026-04-19 01:32 | 55.11612 | -109.99044 | 15032 ft | 407 kts | 308° |
| 2026-04-19 01:32 | 55.12811 | -110.03453 | 14992 ft | 401 kts | 291° |
| 2026-04-19 01:33 | 55.13699 | -110.08034 | 12740 ft | 410 kts | 289° |
| 2026-04-19 01:33 | 55.14137 | -110.13536 | 8362 ft | 492 kts | 270° |
| 2026-04-19 01:33 | 55.13729 | -110.19469 | 6126 ft | 453 kts | 255° |
| 2026-04-19 01:33 | 55.12776 | -110.24600 | 5183 ft | 416 kts | 251° |
| 2026-04-19 01:34 | 55.11819 | -110.29119 | 3590 ft | 418 kts | 248° |
| 2026-04-19 01:34 | 55.10678 | -110.34247 | 3162 ft | 451 kts | 249° |
| 2026-04-19 01:34 | 55.09678 | -110.38449 | 2479 ft | 367 kts | 245° |
| 2026-04-19 01:34 | 55.08565 | -110.42405 | 2506 ft | 336 kts | 240° |
| 2026-04-19 01:35 | 55.08231 | -110.46203 | 2434 ft | 364 kts | 255° |
| 2026-04-19 01:35 | 55.07729 | -110.49053 | 6032 ft | 190 kts | 246° |
| 2026-04-19 01:35 | 55.07198 | -110.51432 | 4275 ft | 253 kts | 256° |
| 2026-04-19 01:35 | 55.05965 | -110.51564 | 3072 ft | 294 kts | 113° |
| 2026-04-19 01:36 | 55.04293 | -110.48994 | 2469 ft | 356 kts | 168° |
| 2026-04-19 01:36 | 55.01786 | -110.49134 | 2500 ft | 377 kts | 186° |
| 2026-04-19 01:36 | 54.99237 | -110.48352 | 2581 ft | 382 kts | 147° |
| 2026-04-19 01:36 | 54.97449 | -110.44906 | 2652 ft | 395 kts | 121° |
| 2026-04-19 01:37 | 54.96126 | -110.40593 | 2911 ft | 417 kts | 117° |
| 2026-04-19 01:37 | 54.95380 | -110.35681 | 3017 ft | 430 kts | 96° |
| 2026-04-19 01:37 | 54.95080 | -110.30832 | 3995 ft | 385 kts | 96° |
| 2026-04-19 01:37 | 54.94782 | -110.25776 | 3032 ft | 452 kts | 96° |
| 2026-04-19 01:38 | 54.94505 | -110.20139 | 2937 ft | 480 kts | 94° |
| 2026-04-19 01:38 | 54.94283 | -110.14255 | 2885 ft | 486 kts | 93° |
| 2026-04-19 01:38 | 54.94386 | -110.08559 | 3019 ft | 466 kts | 85° |
| 2026-04-19 01:38 | 54.94617 | -110.03746 | 7600 ft | 398 kts | 83° |
| 2026-04-19 01:39 | 54.94940 | -109.99188 | 11941 ft | 352 kts | 77° |
| 2026-04-19 01:39 | 54.95217 | -109.95262 | 15255 ft | 304 kts | 79° |
| 2026-04-19 01:39 | 54.95365 | -109.91659 | 15289 ft | 284 kts | 80° |
| 2026-04-19 01:39 | 54.95551 | -109.88486 | 15122 ft | 231 kts | 50° |
| 2026-04-19 01:40 | 54.96566 | -109.87454 | 14600 ft | 164 kts | 313° |
| 2026-04-19 01:40 | 54.96490 | -109.89640 | 14138 ft | 229 kts | 229° |
| 2026-04-19 01:40 | 54.94892 | -109.89326 | 14034 ft | 293 kts | 106° |
| 2026-04-19 01:40 | 54.95024 | -109.85831 | 13461 ft | 280 kts | 73° |
| 2026-04-19 01:41 | 54.95424 | -109.82802 | 12836 ft | 235 kts | 69° |
| 2026-04-19 01:41 | 54.95822 | -109.80196 | 12694 ft | 213 kts | 56° |
| 2026-04-19 01:41 | 54.96498 | -109.77670 | 13046 ft | 255 kts | 61° |
| 2026-04-19 01:41 | 54.96872 | -109.74162 | 13527 ft | 343 kts | 87° |
| 2026-04-19 01:42 | 54.96342 | -109.69765 | 13757 ft | 392 kts | 129° |
| 2026-04-19 01:42 | 54.93894 | -109.68530 | 12337 ft | 397 kts | 216° |
| 2026-04-19 01:42 | 54.92999 | -109.76982 | 13668 ft | 322 kts | 272° |
| 2026-04-19 01:43 | 54.92917 | -109.80273 | 13782 ft | 230 kts | 275° |
| 2026-04-19 01:43 | 54.93494 | -109.82478 | 14242 ft | 218 kts | 329° |
| 2026-04-19 01:43 | 54.95022 | -109.83893 | 14768 ft | 255 kts | 320° |
| 2026-04-19 01:43 | 54.96470 | -109.86029 | 15443 ft | 292 kts | 326° |
| 2026-04-19 01:44 | 54.98587 | -109.87772 | 14999 ft | 404 kts | 347° |
| 2026-04-19 01:44 | 55.01120 | -109.85795 | 14446 ft | 427 kts | 64° |
| 2026-04-19 01:44 | 55.01209 | -109.80604 | 14641 ft | 456 kts | 102° |
| 2026-04-19 01:44 | 54.99906 | -109.75203 | 14460 ft | 529 kts | 114° |
| 2026-04-19 01:45 | 54.98765 | -109.71164 | 14767 ft | 582 kts | 115° |
| 2026-04-19 01:45 | 54.97014 | -109.65261 | 14902 ft | 522 kts | 116° |
| 2026-04-19 01:45 | 54.95408 | -109.60123 | 14850 ft | 454 kts | 115° |
| 2026-04-19 01:45 | 54.94027 | -109.55285 | 14965 ft | 445 kts | 109° |
| 2026-04-19 01:46 | 54.92711 | -109.49863 | 14984 ft | 542 kts | 121° |
| 2026-04-19 01:46 | 54.89645 | -109.45517 | 15221 ft | 593 kts | 160° |
| 2026-04-19 01:46 | 54.84681 | -109.45875 | 15231 ft | 523 kts | 215° |
| 2026-04-19 01:46 | 54.82998 | -109.48631 | 15165 ft | 469 kts | 241° |
| 2026-04-19 01:47 | 54.82149 | -109.53598 | 15080 ft | 427 kts | 279° |
| 2026-04-19 01:47 | 54.82959 | -109.58603 | 15007 ft | 420 kts | 292° |
| 2026-04-19 01:47 | 54.83848 | -109.63291 | 15003 ft | 408 kts | 289° |
| 2026-04-19 01:47 | 54.84289 | -109.68126 | 14465 ft | 415 kts | 257° |
| 2026-04-19 01:48 | 54.82658 | -109.72053 | 14956 ft | 374 kts | 228° |
| 2026-04-19 01:48 | 54.80269 | -109.74037 | 15352 ft | 441 kts | 185° |
| 2026-04-19 01:48 | 54.76838 | -109.74188 | 14782 ft | 513 kts | 186° |
| 2026-04-19 01:48 | 54.73509 | -109.75267 | 14877 ft | 494 kts | 200° |
| 2026-04-19 01:49 | 54.70108 | -109.77445 | 15030 ft | 520 kts | 201° |
| 2026-04-19 01:49 | 54.66639 | -109.78701 | 15019 ft | 519 kts | 188° |
| 2026-04-19 01:49 | 54.62908 | -109.78732 | 15028 ft | 550 kts | 175° |
| 2026-04-19 01:49 | 54.59364 | -109.78263 | 14890 ft | 449 kts | 202° |
| 2026-04-19 01:50 | 54.57138 | -109.81361 | 14644 ft | 401 kts | 213° |
| 2026-04-19 01:50 | 54.54469 | -109.83170 | 14884 ft | 407 kts | 202° |
| 2026-04-19 01:50 | 54.52187 | -109.84924 | 14976 ft | 325 kts | 218° |
| 2026-04-19 01:50 | 54.50354 | -109.87387 | 14966 ft | 374 kts | 233° |
| 2026-04-19 01:51 | 54.48601 | -109.91468 | 14323 ft | 442 kts | 241° |
| 2026-04-19 01:51 | 54.47121 | -109.96298 | 11876 ft | 501 kts | 246° |
| 2026-04-19 01:51 | 54.45415 | -110.01935 | 9220 ft | 516 kts | 244° |
| 2026-04-19 01:51 | 54.43347 | -110.07154 | 6605 ft | 549 kts | 232° |
| 2026-04-19 01:52 | 54.40901 | -110.12082 | 4621 ft | 524 kts | 228° |
| 2026-04-19 01:52 | 54.38408 | -110.16248 | 3724 ft | 515 kts | 226° |
| 2026-04-19 01:52 | 54.35942 | -110.20266 | 3080 ft | 449 kts | 224° |
| 2026-04-19 01:52 | 54.36148 | -110.23914 | 3274 ft | 380 kts | 336° |
| 2026-04-19 01:53 | 54.38322 | -110.26053 | 2604 ft | 307 kts | 323° |
| 2026-04-19 01:53 | 54.39969 | -110.28071 | 2165 ft | 308 kts | 325° |
| 2026-04-19 01:53 | 54.41657 | -110.28381 | 2825 ft | 262 kts | 66° |
| 2026-04-19 01:53 | 54.41880 | -110.25781 | 2407 ft | 187 kts | 72° |
| 2026-04-19 01:54 | 54.41513 | -110.24360 | 2202 ft | 216 kts | 166° |
| 2026-04-19 01:54 | 54.39795 | -110.23479 | 2368 ft | 262 kts | 160° |
| 2026-04-19 01:54 | 54.38537 | -110.24326 | 2320 ft | 204 kts | 245° |
| 2026-04-19 01:54 | 54.38560 | -110.26308 | 1980 ft | 174 kts | 315° |
| 2026-04-19 01:55 | 54.39474 | -110.27435 | 1781 ft | 137 kts | 328° |
| 2026-04-19 01:55 | 54.40085 | -110.28156 | 1779 ft | 60 kts | 331° |
| 2026-04-19 01:55 | 54.40251 | -110.28277 | 1778 ft | 19 kts | 84° |
| 2026-04-19 01:55 | 54.40204 | -110.28045 | 1778 ft | 21 kts | 106° |
| 2026-04-19 01:56 | 54.40233 | -110.27861 | 1778 ft | 14 kts | 56° |
| 2026-04-19 01:56 | 54.40298 | -110.27788 | 1778 ft | 9 kts | 20° |
| 2026-04-19 01:56 | 54.40361 | -110.27766 | 1778 ft | 12 kts | 9° |
| 2026-04-19 01:56 | 54.40425 | -110.27712 | 1778 ft | 9 kts | 49° |
| 2026-04-19 01:57 | 54.40455 | -110.27648 | 1780 ft | 5 kts | 54° |
| 2026-04-19 01:57 | 54.40474 | -110.27601 | 1779 ft | 8 kts | 57° |
| 2026-04-19 01:57 | 54.40515 | -110.27582 | 1777 ft | 4 kts | 303° |